Jansen, Colorado
Current Conditions -  °F | °C
As of 12:54 AM on Saturday 22 Nov 2014 (Local Time) from KTAD Reporting Station
Clear Clear  
Wind Chill: 24°   Ceiling: Unl
Heat Index: 33°   Visibility: 10mi
Dew Point: 21°   Wind: 13mph
Humidity: 61%   Direction: 270°W
Pressure: 30.01"   Gusts: NA
Location:  37.1661°N, 104.486°W
Report Text: KTAD 220754Z AUTO 27011KT 10SM CLR 01/M06 A3001 RMK AO2 SLP143 T00061061
Loading
Personal Weather Stations






























Interactive Weather Map New forecast layout! Learn more

10-Day Weather Forecast

Advertisements
Track Severe Weather on mobile